Pilot Butte, Canada
Current Conditions -  °F | °C
As of 6:00 PM on Wednesday 22 Oct 2014 (Local Time) from CYQR Reporting Station
Broken Clouds Broken Clouds  
Wind Chill: 10°   Ceiling: 29000
Heat Index: 10°   Visibility: 15mi
Dew Point:   Wind: 6mph
Humidity: 82%   Direction: 290°WNW
Pressure: 29.75"   Gusts: NA
Location:  50.48°N, 104.42°W
Report Text: CYQR 230000Z 29005KT 15SM SCT068 BKN290 10/07 A2975 RMK AC4CI2 SLP090 DENSITY ALT 1900FT
Loading
Personal Weather Stations






























Interactive Weather Map
Tropical Storm Tracking
New forecast layout! Learn more

10-Day Weather Forecast

Advertisements
Track Severe Weather on mobile